Time;durP1;ratioP1;P1;durP2;ratioP2;P2;SDS_P1;SDS_P2;PMS_P1;PMS_P2;Temp;Humidity;BMP_temperature;BMP_pressure;BME280_temperature;BME280_humidity;BME280_pressure;Samples;Min_cycle;Max_cycle;Signal;HPM_P1;HPM_P2
2021/12/20 00:00:40;;;;;;;4.80;1.90;;;;;;;1.93;72.53;99460.71;103449;1313;108364;-74
2021/12/20 00:03:14;;;;;;;5.60;2.10;;;;;;;1.92;72.72;99462.10;104459;1313;138707;-75
2021/12/20 00:05:46;;;;;;;4.00;1.70;;;;;;;1.91;72.54;99460.39;104598;1314;96109;-75
2021/12/20 00:08:18;;;;;;;5.20;1.90;;;;;;;1.89;72.59;99456.48;103305;1316;137407;-74
2021/12/20 00:10:51;;;;;;;5.00;2.00;;;;;;;1.89;72.35;99460.59;103832;1314;111448;-75
2021/12/20 00:13:23;;;;;;;4.00;1.70;;;;;;;1.88;72.66;99463.17;104294;1313;109075;-75
2021/12/20 00:15:56;;;;;;;6.40;2.20;;;;;;;1.90;72.58;99465.05;104427;1314;138190;-75
2021/12/20 00:18:27;;;;;;;5.50;1.80;;;;;;;1.92;72.47;99463.64;104579;1314;97483;-75
2021/12/20 00:20:59;;;;;;;5.60;2.00;;;;;;;1.93;72.56;99462.09;104081;1318;138438;-76
2021/12/20 00:23:32;;;;;;;6.20;1.90;;;;;;;1.93;72.41;99455.57;104557;1316;112643;-75
2021/12/20 00:26:03;;;;;;;6.50;2.50;;;;;;;1.95;72.48;99455.90;104462;1318;137695;-75
2021/12/20 00:28:35;;;;;;;5.00;2.40;;;;;;;1.96;72.33;99457.94;104274;1313;108004;-75
2021/12/20 00:31:08;;;;;;;5.90;2.60;;;;;;;1.93;72.25;99460.54;103310;1316;98593;-74
2021/12/20 00:33:40;;;;;;;6.60;2.30;;;;;;;1.91;72.41;99458.17;103685;1319;137527;-75
2021/12/20 00:36:20;;;;;;;6.40;2.60;;;;;;;1.89;72.38;99464.52;104577;1316;112505;-76
2021/12/20 00:41:42;;;;;;;4.70;2.20;;;;;;;1.80;72.23;99463.08;103932;1316;112327;-75
2021/12/20 00:44:14;;;;;;;4.40;2.40;;;;;;;1.75;72.26;99467.56;104412;1314;137699;-75
2021/12/20 00:46:57;;;;;;;5.50;2.30;;;;;;;1.69;72.42;99466.09;104001;1316;96206;-74
2021/12/20 00:49:30;;;;;;;5.80;2.10;;;;;;;1.67;72.61;99469.03;103160;1313;112393;-73
2021/12/20 00:52:02;;;;;;;5.90;2.30;;;;;;;1.64;72.17;99467.16;103113;1317;138447;-75
2021/12/20 00:54:34;;;;;;;4.50;2.10;;;;;;;1.62;72.40;99467.86;103184;1312;109765;-74
2021/12/20 00:57:06;;;;;;;7.10;2.80;;;;;;;1.57;72.37;99462.06;104428;1314;138393;-75
2021/12/20 00:59:38;;;;;;;6.10;2.50;;;;;;;1.54;72.41;99463.47;104494;1314;96491;-74
2021/12/20 01:02:10;;;;;;;7.00;2.50;;;;;;;1.51;72.52;99465.73;103874;1317;138975;-75
2021/12/20 01:04:43;;;;;;;7.60;2.80;;;;;;;1.46;72.57;99472.45;103098;1313;108863;-75
2021/12/20 01:07:15;;;;;;;4.80;2.10;;;;;;;1.43;72.69;99471.61;103252;1314;109096;-74
2021/12/20 01:09:47;;;;;;;3.40;2.10;;;;;;;1.40;72.69;99470.09;103093;1313;138922;-74
2021/12/20 01:12:20;;;;;;;6.30;2.20;;;;;;;1.36;72.60;99473.20;103100;1316;98371;-74
2021/12/20 01:14:58;;;;;;;6.30;1.80;;;;;;;1.33;72.82;99479.92;104496;1314;139658;-74
2021/12/20 01:17:34;;;;;;;4.10;1.90;;;;;;;1.32;72.97;99477.35;104580;1316;107933;-74
2021/12/20 01:20:08;;;;;;;5.40;1.90;;;;;;;1.35;73.06;99478.70;103500;1322;139657;-74
2021/12/20 01:22:41;;;;;;;6.70;2.10;;;;;;;1.39;73.01;99479.86;104606;1316;96127;-75
2021/12/20 01:25:14;;;;;;;4.50;2.00;;;;;;;1.44;72.88;99473.84;104586;1316;96119;-74
2021/12/20 01:27:46;;;;;;;5.70;2.10;;;;;;;1.47;72.88;99469.37;104485;1315;137544;-75
2021/12/20 01:30:21;;;;;;;6.20;2.60;;;;;;;1.49;72.93;99474.31;103606;1320;109166;-74
2021/12/20 01:32:53;;;;;;;5.50;2.10;;;;;;;1.51;72.71;99473.60;104471;1314;139033;-74
2021/12/20 01:35:27;;;;;;;5.20;2.00;;;;;;;1.52;72.77;99473.77;104476;1316;95877;-75
2021/12/20 01:37:59;;;;;;;6.70;2.20;;;;;;;1.52;72.67;99468.11;104382;1314;140915;-76
2021/12/20 01:40:31;;;;;;;6.90;1.90;;;;;;;1.50;72.62;99468.48;104633;1313;112485;-75
2021/12/20 01:43:04;;;;;;;4.50;1.90;;;;;;;1.48;72.62;99468.33;104567;1310;108611;-76
2021/12/20 01:45:37;;;;;;;6.20;2.10;;;;;;;1.47;72.63;99471.08;104476;1314;139203;-76
2021/12/20 01:48:11;;;;;;;4.40;1.90;;;;;;;1.46;72.47;99469.20;103729;1317;96314;-76
2021/12/20 01:51:13;;;;;;;3.80;1.80;;;;;;;1.48;72.66;99474.67;103969;1314;138750;-75
2021/12/20 01:53:43;;;;;;;4.70;1.80;;;;;;;1.50;72.55;99468.48;104006;1319;111481;-75
2021/12/20 01:56:15;;;;;;;5.90;2.10;;;;;;;1.54;72.68;99465.70;104379;1313;138455;-74
2021/12/20 01:58:47;;;;;;;3.20;1.80;;;;;;;1.61;72.67;99469.77;103334;1314;109205;-73
2021/12/20 02:01:20;;;;;;;3.50;1.70;;;;;;;1.63;72.52;99468.04;103860;1312;97751;-75
2021/12/20 02:03:59;;;;;;;3.70;2.00;;;;;;;1.65;72.47;99472.13;104335;1314;137459;-74
2021/12/20 02:06:35;;;;;;;5.80;2.00;;;;;;;1.67;72.44;99474.34;104619;1317;112735;-74
2021/12/20 02:09:08;;;;;;;4.70;2.30;;;;;;;1.66;72.35;99470.76;104292;1316;138881;-74
2021/12/20 02:11:44;;;;;;;5.10;1.90;;;;;;;1.62;72.13;99473.34;104135;1316;107917;-75
2021/12/20 02:14:17;;;;;;;6.80;1.90;;;;;;;1.58;72.20;99477.83;104427;1313;137666;-75
2021/12/20 02:16:50;;;;;;;4.60;1.90;;;;;;;1.53;72.40;99481.13;103875;1313;96317;-74
2021/12/20 02:19:22;;;;;;;5.30;2.20;;;;;;;1.50;72.50;99478.58;104469;1314;112767;-74
2021/12/20 02:21:54;;;;;;;4.20;1.70;;;;;;;1.48;72.65;99470.39;104485;1313;138637;-75
2021/12/20 02:24:26;;;;;;;5.80;1.70;;;;;;;1.48;72.76;99469.70;104578;1313;108902;-75
2021/12/20 02:26:58;;;;;;;5.70;2.00;;;;;;;1.47;72.67;99465.09;104453;1313;139240;-75
2021/12/20 02:29:43;;;;;;;4.00;1.80;;;;;;;1.47;72.71;99461.83;104571;1314;95976;-75
2021/12/20 02:37:58;;;;;;;5.50;1.90;;;;;;;1.52;72.93;99464.86;104484;1314;137630;-73
2021/12/20 02:40:30;;;;;;;4.20;1.90;;;;;;;1.53;72.96;99471.18;104512;1313;96097;-74
2021/12/20 02:43:02;;;;;;;3.30;2.00;;;;;;;1.53;72.87;99461.94;104556;1313;96107;-74
2021/12/20 02:45:37;;;;;;;7.00;2.60;;;;;;;1.49;72.97;99463.52;104506;1314;137276;-75
2021/12/20 02:48:09;;;;;;;5.30;2.30;;;;;;;1.47;73.03;99456.86;104597;1313;107914;-74
2021/12/20 02:50:41;;;;;;;3.90;1.70;;;;;;;1.43;72.94;99460.14;104434;1314;137629;-74
2021/12/20 02:53:13;;;;;;;5.60;1.80;;;;;;;1.39;73.07;99462.39;103373;1315;97938;-73
2021/12/20 02:55:45;;;;;;;4.20;1.90;;;;;;;1.38;73.10;99457.42;104290;1316;139407;-75
2021/12/20 02:58:17;;;;;;;5.90;2.00;;;;;;;1.37;73.30;99455.21;104177;1313;112776;-74
2021/12/20 03:00:49;;;;;;;3.60;2.00;;;;;;;1.40;73.82;99449.02;104616;1315;109383;-75
2021/12/20 03:03:21;;;;;;;4.30;2.20;;;;;;;1.39;74.11;99446.98;104429;1315;140130;-74
2021/12/20 03:05:54;;;;;;;3.90;1.90;;;;;;;1.39;74.20;99442.52;103347;1316;97950;-74
2021/12/20 03:08:26;;;;;;;5.50;2.10;;;;;;;1.36;74.21;99439.81;103106;1314;137483;-74
2021/12/20 03:10:58;;;;;;;5.10;2.30;;;;;;;1.33;74.12;99435.89;103087;1315;112489;-73
2021/12/20 03:13:30;;;;;;;5.50;2.40;;;;;;;1.30;74.23;99428.73;103178;1313;108237;-74
2021/12/20 03:16:02;;;;;;;3.00;2.10;;;;;;;1.23;74.09;99428.09;102978;1314;138844;-73
2021/12/20 03:18:34;;;;;;;4.50;2.30;;;;;;;1.17;74.28;99431.39;103699;1316;98748;-74
2021/12/20 03:21:06;;;;;;;4.00;2.30;;;;;;;1.14;74.35;99434.15;103758;1317;138181;-74
2021/12/20 03:23:39;;;;;;;4.40;2.30;;;;;;;1.13;74.42;99437.07;103541;1314;112648;-73
2021/12/20 03:26:11;;;;;;;4.50;1.90;;;;;;;1.14;74.48;99440.32;104454;1315;138095;-73
2021/12/20 03:28:43;;;;;;;4.60;2.00;;;;;;;1.15;74.68;99439.80;104574;1314;108349;-73
2021/12/20 03:31:15;;;;;;;8.80;2.10;;;;;;;1.16;74.76;99436.19;104550;1314;96046;-74
2021/12/20 03:33:47;;;;;;;5.00;2.10;;;;;;;1.15;74.63;99436.20;103432;1328;138064;-73
2021/12/20 03:36:19;;;;;;;3.20;1.90;;;;;;;1.12;74.77;99439.65;103870;1313;111731;-73
2021/12/20 03:38:53;;;;;;;3.60;1.80;;;;;;;1.09;74.78;99438.82;103473;1316;139041;-74
2021/12/20 03:41:26;;;;;;;6.10;2.40;;;;;;;1.06;74.83;99440.52;103585;1314;108853;-73
2021/12/20 03:43:58;;;;;;;5.10;2.10;;;;;;;1.04;75.09;99443.12;102985;1313;139229;-74
2021/12/20 03:46:30;;;;;;;3.00;1.60;;;;;;;1.05;75.17;99443.96;103550;1316;97770;-73
2021/12/20 03:49:04;;;;;;;4.90;1.70;;;;;;;1.08;75.27;99441.05;104576;1313;113135;-74
2021/12/20 03:51:37;;;;;;;5.10;1.90;;;;;;;1.11;75.31;99438.98;104492;1313;138461;-74
2021/12/20 03:54:09;;;;;;;4.90;1.90;;;;;;;1.13;75.40;99446.84;104598;1316;108999;-75
2021/12/20 03:56:41;;;;;;;6.00;1.80;;;;;;;1.16;75.44;99435.00;104404;1310;138050;-73
2021/12/20 03:59:13;;;;;;;4.10;2.00;;;;;;;1.16;75.49;99437.56;103939;1314;96728;-73
2021/12/20 04:01:45;;;;;;;4.00;2.20;;;;;;;1.15;75.61;99437.56;104401;1314;137674;-74
2021/12/20 04:04:17;;;;;;;3.70;1.80;;;;;;;1.14;75.74;99435.69;104582;1314;109141;-73
2021/12/20 04:06:49;;;;;;;4.40;1.70;;;;;;;1.14;75.84;99446.14;104546;1315;108783;-73
2021/12/20 04:09:21;;;;;;;4.40;1.50;;;;;;;1.13;76.06;99436.73;104424;1314;139022;-74
2021/12/20 04:11:53;;;;;;;2.30;1.40;;;;;;;1.13;76.37;99441.36;104560;1313;97043;-75
2021/12/20 04:14:25;;;;;;;3.80;1.50;;;;;;;1.14;76.54;99435.87;104163;1312;137887;-73
2021/12/20 04:16:57;;;;;;;4.00;1.50;;;;;;;1.15;76.83;99438.76;103597;1316;108875;-73
2021/12/20 04:19:29;;;;;;;4.40;1.70;;;;;;;1.15;76.77;99435.52;103860;1318;108937;-73
2021/12/20 04:22:01;;;;;;;4.00;1.50;;;;;;;1.14;76.76;99442.54;104338;1310;138743;-73
2021/12/20 04:24:33;;;;;;;6.60;1.60;;;;;;;1.13;76.94;99443.76;104590;1313;96012;-73
2021/12/20 04:27:05;;;;;;;3.60;1.40;;;;;;;1.12;77.06;99443.92;104396;1313;138169;-74
2021/12/20 04:29:38;;;;;;;3.40;1.20;;;;;;;1.10;77.09;99443.79;104513;1313;109433;-74
2021/12/20 04:32:10;;;;;;;2.90;1.20;;;;;;;1.10;77.15;99447.21;104477;1314;139152;-74
2021/12/20 04:34:42;;;;;;;4.70;1.50;;;;;;;1.10;77.18;99440.52;103991;1312;97866;-74
2021/12/20 04:37:14;;;;;;;2.80;1.50;;;;;;;1.13;77.37;99434.68;104490;1315;96048;-75
2021/12/20 04:39:47;;;;;;;5.20;1.30;;;;;;;1.16;77.41;99426.94;104489;1313;138897;-75
2021/12/20 04:42:20;;;;;;;3.00;1.30;;;;;;;1.17;77.36;99431.56;104595;1316;108963;-75
2021/12/20 04:44:53;;;;;;;3.20;1.40;;;;;;;1.17;77.51;99425.91;103865;1313;138374;-75
2021/12/20 04:47:26;;;;;;;3.00;1.40;;;;;;;1.15;77.49;99429.02;103166;1314;97976;-73
2021/12/20 04:49:59;;;;;;;3.00;1.30;;;;;;;1.12;77.68;99434.34;103089;1313;139290;-73
2021/12/20 04:52:31;;;;;;;3.80;1.40;;;;;;;1.11;77.98;99438.64;103136;1316;112009;-73
2021/12/20 04:55:03;;;;;;;2.50;1.30;;;;;;;1.11;78.13;99448.05;103197;1314;109719;-75
2021/12/20 04:57:36;;;;;;;3.10;1.60;;;;;;;1.12;78.14;99450.27;104439;1313;138218;-74
2021/12/20 05:00:13;;;;;;;2.30;1.30;;;;;;;1.16;78.26;99456.56;103796;1314;97886;-74
2021/12/20 05:02:46;;;;;;;1.40;0.90;;;;;;;1.20;78.39;99457.05;104531;1313;137709;-74
2021/12/20 05:05:18;;;;;;;1.80;1.30;;;;;;;1.21;78.43;99457.55;104556;1313;112545;-73
2021/12/20 05:07:53;;;;;;;4.10;1.70;;;;;;;1.23;78.68;99458.56;104460;1312;139510;-73
2021/12/20 05:10:29;;;;;;;2.30;1.40;;;;;;;1.24;78.61;99454.62;104561;1314;109068;-73
2021/12/20 05:13:03;;;;;;;2.80;1.90;;;;;;;1.23;78.63;99459.42;104532;1317;96093;-73
2021/12/20 05:15:35;;;;;;;3.00;1.50;;;;;;;1.20;78.60;99460.46;103756;1314;137583;-73
2021/12/20 05:18:10;;;;;;;3.30;1.50;;;;;;;1.18;78.77;99470.25;103802;1315;111161;-74
2021/12/20 05:20:42;;;;;;;2.80;1.60;;;;;;;1.20;78.88;99475.88;103089;1313;138411;-75
2021/12/20 05:23:14;;;;;;;3.40;1.50;;;;;;;1.23;79.06;99468.84;104397;1314;108606;-74
2021/12/20 05:25:46;;;;;;;4.40;1.40;;;;;;;1.24;79.08;99474.30;104268;1313;139428;-73
2021/12/20 05:28:18;;;;;;;2.70;1.70;;;;;;;1.27;79.15;99481.67;104491;1315;96804;-74
2021/12/20 05:30:52;;;;;;;4.70;2.10;;;;;;;1.30;79.12;99487.31;104551;1313;112515;-75
2021/12/20 05:33:25;;;;;;;3.90;1.70;;;;;;;1.31;79.09;99485.24;104446;1314;138525;-74
2021/12/20 05:35:57;;;;;;;6.80;2.10;;;;;;;1.31;79.07;99492.77;103558;1316;108889;-74
2021/12/20 05:38:49;;;;;;;4.30;2.30;;;;;;;1.31;79.22;99496.55;104323;1315;137809;-75
2021/12/20 05:41:21;;;;;;;6.70;2.50;;;;;;;1.31;79.22;99508.70;103607;1321;96180;-75
2021/12/20 05:43:53;;;;;;;5.60;2.30;;;;;;;1.34;79.46;99502.17;104480;1313;138803;-75
2021/12/20 05:46:25;;;;;;;5.20;2.20;;;;;;;1.34;79.38;99507.48;104436;1316;109101;-75
2021/12/20 05:48:57;;;;;;;2.60;1.70;;;;;;;1.34;79.86;99513.64;104604;1314;109028;-75
2021/12/20 05:51:30;;;;;;;3.90;1.70;;;;;;;1.34;79.71;99514.67;104469;1313;138272;-74
2021/12/20 05:54:02;;;;;;;2.90;1.80;;;;;;;1.36;79.86;99512.77;104578;1314;95860;-75
2021/12/20 05:56:35;;;;;;;5.10;2.70;;;;;;;1.38;79.93;99518.40;104074;1314;138424;-73
2021/12/20 05:59:06;;;;;;;2.70;1.70;;;;;;;1.38;79.87;99527.14;104284;1313;108928;-74
2021/12/20 06:01:38;;;;;;;5.60;1.90;;;;;;;1.36;79.87;99524.41;103042;1315;109075;-75
2021/12/20 06:04:10;;;;;;;4.80;2.10;;;;;;;1.35;80.03;99524.60;103605;1314;137767;-76
2021/12/20 06:06:42;;;;;;;4.20;2.20;;;;;;;1.32;80.18;99533.02;103657;1320;95909;-76
2021/12/20 06:09:16;;;;;;;3.00;2.10;;;;;;;1.32;80.28;99535.92;103658;1320;138327;-76
2021/12/20 06:11:48;;;;;;;3.10;2.00;;;;;;;1.31;80.44;99542.96;104582;1313;107634;-76
2021/12/20 06:14:20;;;;;;;4.90;1.90;;;;;;;1.32;80.47;99550.14;104448;1314;138531;-75
2021/12/20 06:16:52;;;;;;;2.90;1.90;;;;;;;1.31;80.58;99554.27;104417;1316;96053;-75
2021/12/20 06:19:25;;;;;;;3.30;2.00;;;;;;;1.28;80.57;99551.71;104421;1313;95743;-75
2021/12/20 06:21:57;;;;;;;5.20;3.10;;;;;;;1.27;80.53;99550.17;103564;1316;137975;-75
2021/12/20 06:24:29;;;;;;;3.60;2.00;;;;;;;1.25;80.62;99552.56;103654;1321;107952;-75
2021/12/20 06:27:01;;;;;;;3.20;1.90;;;;;;;1.26;80.65;99558.38;103611;1313;138130;-74
2021/12/20 06:29:33;;;;;;;3.40;2.20;;;;;;;1.27;80.75;99564.39;103897;1313;97755;-75
2021/12/20 06:32:07;;;;;;;3.30;2.00;;;;;;;1.27;80.61;99561.14;104453;1317;138929;-76
2021/12/20 06:34:39;;;;;;;2.50;1.90;;;;;;;1.25;80.47;99568.48;104276;1313;112577;-76
2021/12/20 06:37:12;;;;;;;2.30;1.80;;;;;;;1.23;80.36;99575.69;104486;1316;175739;-76
2021/12/20 06:39:44;;;;;;;4.30;1.90;;;;;;;1.25;80.43;99580.81;103977;1314;139307;-75
2021/12/20 06:42:16;;;;;;;4.20;2.20;;;;;;;1.27;80.28;99580.65;104199;1314;96636;-76
2021/12/20 06:44:48;;;;;;;3.40;2.30;;;;;;;1.30;80.52;99587.84;104504;1314;137664;-76
2021/12/20 06:47:21;;;;;;;3.10;2.10;;;;;;;1.31;80.48;99592.27;104137;1313;112488;-76
2021/12/20 06:49:53;;;;;;;2.90;2.00;;;;;;;1.31;80.33;99593.82;103810;1314;138271;-75
2021/12/20 06:52:25;;;;;;;3.00;2.00;;;;;;;1.31;80.33;99596.04;104624;1314;109440;-76
2021/12/20 06:54:57;;;;;;;2.80;2.20;;;;;;;1.31;80.37;99597.08;104443;1315;96045;-76
2021/12/20 06:57:29;;;;;;;2.10;1.90;;;;;;;1.34;80.39;99594.48;104475;1314;138061;-76
2021/12/20 07:00:01;;;;;;;2.70;2.10;;;;;;;1.39;80.21;99595.98;104184;1315;112603;-75
2021/12/20 07:02:33;;;;;;;5.70;2.60;;;;;;;1.43;80.29;99594.77;103055;1313;138088;-75
2021/12/20 07:05:07;;;;;;;5.30;2.20;;;;;;;1.45;80.19;99598.02;103196;1313;108964;-75
2021/12/20 07:07:39;;;;;;;4.20;2.10;;;;;;;1.46;80.20;99600.08;104618;1314;95966;-77
2021/12/20 07:10:12;;;;;;;3.40;2.70;;;;;;;1.46;80.12;99607.27;104452;1312;137779;-77
2021/12/20 07:12:44;;;;;;;2.80;2.40;;;;;;;1.44;80.06;99605.39;103780;1313;112182;-77
2021/12/20 07:15:16;;;;;;;4.20;2.30;;;;;;;1.43;79.99;99611.55;103083;1314;138290;-76
2021/12/20 07:17:48;;;;;;;2.90;2.00;;;;;;;1.43;80.15;99614.64;103155;1314;109235;-76
2021/12/20 07:20:21;;;;;;;2.80;2.00;;;;;;;1.44;80.20;99617.05;103123;1313;138441;-76
2021/12/20 07:22:53;;;;;;;3.10;2.00;;;;;;;1.47;80.09;99615.33;103126;1316;97827;-77
2021/12/20 07:25:25;;;;;;;4.20;2.40;;;;;;;1.48;79.91;99622.16;103232;1315;112108;-77
2021/12/20 07:27:57;;;;;;;2.60;2.20;;;;;;;1.51;80.16;99627.96;103065;1313;138729;-78
2021/12/20 07:30:30;;;;;;;3.60;2.50;;;;;;;1.57;80.07;99632.05;103019;1315;108001;-77
2021/12/20 07:33:02;;;;;;;4.00;3.10;;;;;;;1.62;79.98;99636.64;104442;1315;138759;-77
2021/12/20 07:35:34;;;;;;;2.90;2.50;;;;;;;1.67;80.04;99637.13;103612;1319;96093;-77
2021/12/20 07:38:11;;;;;;;4.40;3.20;;;;;;;1.70;80.06;99642.41;103639;1316;139195;-78
2021/12/20 07:40:46;;;;;;;4.20;3.00;;;;;;;1.70;79.83;99644.30;104450;1314;109611;-76
2021/12/20 07:43:19;;;;;;;3.70;3.10;;;;;;;1.69;79.67;99644.65;103943;1318;109132;-76
2021/12/20 07:45:54;;;;;;;4.60;3.00;;;;;;;1.69;79.70;99640.71;103058;1314;137720;-76
2021/12/20 07:48:26;;;;;;;4.30;2.70;;;;;;;1.70;79.86;99637.27;103200;1313;97741;-78
2021/12/20 07:50:59;;;;;;;3.20;2.80;;;;;;;1.70;79.62;99638.31;103007;1312;138503;-75
2021/12/20 07:53:31;;;;;;;3.10;2.40;;;;;;;1.71;79.72;99642.24;103164;1314;108982;-78
2021/12/20 07:56:05;;;;;;;3.90;2.70;;;;;;;1.76;79.65;99645.63;102928;1316;138388;-77
2021/12/20 07:58:37;;;;;;;2.90;2.50;;;;;;;1.78;79.49;99643.21;104585;1314;96194;-77
2021/12/20 08:01:10;;;;;;;4.10;2.40;;;;;;;1.85;79.47;99644.39;104593;1315;97013;-76
2021/12/20 08:03:43;;;;;;;4.60;3.00;;;;;;;1.95;79.30;99646.88;104438;1315;137569;-76
2021/12/20 08:06:17;;;;;;;4.40;2.60;;;;;;;2.07;79.34;99656.92;104498;1312;108920;-76
2021/12/20 08:08:49;;;;;;;2.90;2.50;;;;;;;2.16;78.99;99660.45;104276;1315;137731;-76
2021/12/20 08:11:21;;;;;;;3.50;2.40;;;;;;;2.20;78.82;99659.06;103834;1316;96081;-70
2021/12/20 08:13:53;;;;;;;5.90;4.10;;;;;;;2.18;78.42;99662.33;103579;1316;139135;-70
2021/12/20 08:16:25;;;;;;;4.00;2.60;;;;;;;2.17;78.45;99664.05;104253;1316;112581;-70
2021/12/20 08:18:57;;;;;;;3.40;2.50;;;;;;;2.16;78.34;99666.64;104050;1314;109181;-71
2021/12/20 08:21:29;;;;;;;3.50;2.40;;;;;;;2.12;78.38;99670.07;103891;1313;139506;-70
2021/12/20 08:24:02;;;;;;;2.70;2.40;;;;;;;2.14;78.57;99671.44;103503;1316;97855;-70
2021/12/20 08:26:34;;;;;;;2.50;2.30;;;;;;;2.15;78.37;99671.26;104159;1316;138399;-70
2021/12/20 08:29:06;;;;;;;3.10;2.30;;;;;;;2.11;78.19;99668.71;103981;1313;112151;-71
2021/12/20 08:31:39;;;;;;;3.60;2.40;;;;;;;2.04;78.39;99672.55;104566;1316;109054;-70
2021/12/20 08:34:11;;;;;;;4.70;2.70;;;;;;;2.02;78.59;99671.89;104314;1312;139404;-71
2021/12/20 08:36:43;;;;;;;2.70;2.30;;;;;;;2.00;78.84;99682.36;104564;1313;96150;-70
2021/12/20 08:39:19;;;;;;;3.50;2.60;;;;;;;1.99;78.96;99683.57;104365;1314;138551;-70
2021/12/20 08:41:51;;;;;;;2.90;2.20;;;;;;;1.98;79.07;99683.91;103701;1313;112586;-70
2021/12/20 08:44:24;;;;;;;2.50;2.30;;;;;;;1.91;79.03;99678.97;103064;1314;139810;-70
2021/12/20 08:46:56;;;;;;;3.40;2.50;;;;;;;1.89;79.31;99688.41;103201;1313;108810;-71
2021/12/20 08:49:29;;;;;;;3.10;2.20;;;;;;;1.89;79.55;99689.10;103160;1314;99488;-70
2021/12/20 08:52:02;;;;;;;4.00;2.60;;;;;;;1.87;79.45;99687.41;103029;1316;138211;-70
2021/12/20 08:54:34;;;;;;;5.00;2.60;;;;;;;1.83;79.38;99694.80;103208;1313;112521;-70
2021/12/20 08:57:07;;;;;;;3.50;2.40;;;;;;;1.76;79.37;99694.83;103083;1316;137709;-70
2021/12/20 08:59:40;;;;;;;5.40;2.80;;;;;;;1.74;79.27;99692.61;103166;1314;109053;-70
2021/12/20 09:02:12;;;;;;;3.30;2.50;;;;;;;1.71;79.20;99700.85;103142;1313;137862;-70
2021/12/20 09:04:44;;;;;;;3.00;2.40;;;;;;;1.66;79.33;99702.60;104570;1314;95964;-71
2021/12/20 09:07:17;;;;;;;2.90;2.50;;;;;;;1.61;79.37;99704.16;104603;1314;111946;-71
2021/12/20 09:09:49;;;;;;;4.10;2.30;;;;;;;1.54;79.31;99701.27;104158;1317;138396;-72
2021/12/20 09:12:21;;;;;;;3.60;2.50;;;;;;;1.45;79.20;99714.01;103648;1314;109003;-71
2021/12/20 09:14:54;;;;;;;2.90;1.90;;;;;;;1.40;79.27;99717.60;103030;1313;139510;-70
2021/12/20 09:17:26;;;;;;;3.70;2.50;;;;;;;1.38;79.52;99729.95;103122;1314;97911;-71
2021/12/20 09:19:58;;;;;;;3.30;2.40;;;;;;;1.37;79.54;99727.73;103040;1315;138424;-70
2021/12/20 09:22:38;;;;;;;4.50;2.70;;;;;;;1.37;79.67;99729.61;103211;1320;109367;-71
2021/12/20 09:25:11;;;;;;;5.00;2.60;;;;;;;1.38;79.79;99728.73;103132;1316;109115;-71
2021/12/20 09:27:43;;;;;;;5.70;3.40;;;;;;;1.39;79.59;99735.94;104475;1313;139185;-71
2021/12/20 09:30:16;;;;;;;2.90;1.70;;;;;;;1.32;79.22;99736.48;104133;1315;96126;-71
2021/12/20 09:32:48;;;;;;;1.70;1.30;;;;;;;1.20;78.71;99732.40;104199;1310;137590;-71
2021/12/20 09:35:21;;;;;;;3.30;1.40;;;;;;;1.05;78.61;99736.88;104386;1310;107782;-71
2021/12/20 09:37:54;;;;;;;2.00;1.20;;;;;;;0.93;79.04;99751.11;103720;1317;138202;-70
2021/12/20 09:40:33;;;;;;;3.10;1.00;;;;;;;0.84;79.33;99752.65;104576;1314;96999;-71
2021/12/20 09:43:09;;;;;;;2.30;1.10;;;;;;;0.73;79.40;99752.67;103687;1319;96179;-71
2021/12/20 09:45:44;;;;;;;2.80;1.10;;;;;;;0.61;79.50;99752.50;104474;1310;139636;-70
2021/12/20 09:48:16;;;;;;;1.70;1.20;;;;;;;0.53;79.85;99749.25;103870;1317;107063;-71
2021/12/20 09:50:49;;;;;;;3.00;1.00;;;;;;;0.50;80.27;99756.25;104243;1310;140054;-70
2021/12/20 09:53:21;;;;;;;1.90;0.90;;;;;;;0.50;80.23;99760.02;104275;1317;96547;-70
2021/12/20 09:55:55;;;;;;;1.60;1.00;;;;;;;0.54;80.47;99763.96;104189;1314;138104;-70
2021/12/20 09:58:34;;;;;;;0.90;0.90;;;;;;;0.60;80.49;99769.79;104397;1315;114542;-70
2021/12/20 10:01:08;;;;;;;5.60;1.20;;;;;;;0.59;80.34;99768.93;104353;1314;111018;-70
2021/12/20 10:03:41;;;;;;;4.00;1.40;;;;;;;0.53;80.14;99772.00;104198;1311;139025;-71
2021/12/20 10:06:13;;;;;;;3.80;1.20;;;;;;;0.53;80.05;99774.05;104444;1313;95939;-71
2021/12/20 10:08:50;;;;;;;4.90;1.50;;;;;;;0.56;79.88;99773.73;104318;1313;138235;-71
2021/12/20 10:11:25;;;;;;;3.80;1.10;;;;;;;0.60;79.70;99772.35;103942;1315;112596;-71
2021/12/20 10:14:06;;;;;;;2.70;1.30;;;;;;;0.59;79.65;99777.98;103615;1310;140630;-70
2021/12/20 10:16:41;;;;;;;2.50;1.40;;;;;;;0.60;79.74;99780.04;104389;1316;109510;-71
2021/12/20 10:19:30;;;;;;;2.00;1.40;;;;;;;0.66;79.90;99777.98;104266;1315;97072;-71
2021/12/20 10:22:21;;;;;;;4.00;1.90;;;;;;;0.80;79.80;99778.52;104209;1315;138708;-71
2021/12/20 10:24:54;;;;;;;10.00;1.90;;;;;;;0.98;79.44;99779.35;104294;1313;112152;-71
2021/12/20 10:27:35;;;;;;;4.40;1.70;;;;;;;1.11;79.26;99777.63;104237;1315;140608;-71
2021/12/20 10:30:25;;;;;;;8.50;1.80;;;;;;;1.27;79.16;99781.19;104052;1317;108314;-71
2021/12/20 10:32:58;;;;;;;3.60;2.00;;;;;;;1.36;78.28;99779.11;103210;1321;137544;-71
2021/12/20 10:35:42;;;;;;;5.70;3.20;;;;;;;1.44;78.22;99778.23;104463;1316;97217;-71
2021/12/20 10:38:38;;;;;;;4.60;1.90;;;;;;;1.62;77.87;99781.61;103889;1313;137650;-71
2021/12/20 10:41:17;;;;;;;5.10;2.40;;;;;;;1.88;77.29;99781.68;104385;1311;107907;-72
2021/12/20 10:43:52;;;;;;;4.50;2.30;;;;;;;1.94;76.68;99789.53;104417;1312;108714;-70
2021/12/20 10:46:27;;;;;;;7.00;2.40;;;;;;;1.97;76.35;99791.92;104313;1313;138160;-71
2021/12/20 10:49:05;;;;;;;5.70;2.60;;;;;;;2.05;76.08;99789.15;104444;1312;95830;-71
2021/12/20 10:51:41;;;;;;;6.00;2.50;;;;;;;2.28;75.38;99796.05;104530;1313;138634;-71
2021/12/20 10:54:17;;;;;;;4.20;2.10;;;;;;;2.35;73.85;99798.93;104235;1313;109002;-71
2021/12/20 10:56:53;;;;;;;4.70;1.70;;;;;;;2.31;72.50;99796.19;104501;1314;138080;-71
2021/12/20 10:59:27;;;;;;;4.30;1.70;;;;;;;2.28;71.43;99805.81;104609;1317;96249;-70
2021/12/20 11:04:57;;;;;;;3.50;1.20;;;;;;;2.31;71.32;99799.80;103936;1317;112901;-69
2021/12/20 11:10:26;;;;;;;4.20;1.80;;;;;;;2.28;69.38;99799.98;103245;1318;137725;-70
2021/12/20 11:12:58;;;;;;;2.90;1.70;;;;;;;2.19;69.09;99800.74;104080;1321;96254;-69
2021/12/20 11:15:31;;;;;;;4.40;1.50;;;;;;;2.11;69.00;99808.14;103802;1320;137374;-70
2021/12/20 11:18:16;;;;;;;2.00;1.20;;;;;;;2.00;67.14;99807.34;103554;1321;112400;-70
2021/12/20 11:20:48;;;;;;;4.20;1.60;;;;;;;1.89;67.79;99815.96;103933;1320;138945;-69
2021/12/20 11:23:28;;;;;;;2.30;1.40;;;;;;;1.88;68.13;99823.34;102991;1326;108876;-69
2021/12/20 11:26:00;;;;;;;3.90;1.30;;;;;;;1.88;67.20;99829.00;103566;1322;96268;-69
2021/12/20 11:28:32;;;;;;;2.60;1.10;;;;;;;1.78;65.30;99819.94;102771;1321;137553;-68
2021/12/20 11:31:04;;;;;;;1.40;1.00;;;;;;;1.65;64.72;99819.30;103597;1319;111725;-69
2021/12/20 11:33:37;;;;;;;1.60;1.20;;;;;;;1.47;65.16;99825.17;103181;1319;138102;-69
2021/12/20 11:36:09;;;;;;;3.00;1.50;;;;;;;1.36;65.76;99837.70;103029;1320;108870;-69
2021/12/20 11:38:41;;;;;;;3.20;1.60;;;;;;;1.30;66.28;99837.38;103639;1321;139303;-69
2021/12/20 11:41:14;;;;;;;4.30;1.70;;;;;;;1.20;66.50;99839.25;102968;1321;98045;-69
2021/12/20 11:43:47;;;;;;;9.60;1.60;;;;;;;1.15;66.90;99841.32;104292;1314;112564;-69
2021/12/20 11:46:21;;;;;;;4.10;1.80;;;;;;;1.12;67.18;99844.92;104222;1312;139199;-69
2021/12/20 11:48:54;;;;;;;6.00;1.30;;;;;;;1.10;66.83;99842.36;104187;1316;109059;-69
2021/12/20 11:51:26;;;;;;;3.30;1.50;;;;;;;1.13;66.87;99845.95;104190;1316;138782;-69
2021/12/20 11:53:58;;;;;;;4.60;1.80;;;;;;;1.22;67.49;99847.64;104283;1318;96690;-69
2021/12/20 11:56:39;;;;;;;4.40;1.40;;;;;;;1.26;67.19;99852.09;103319;1317;139540;-69
2021/12/20 11:59:16;;;;;;;2.90;1.40;;;;;;;1.19;66.16;99849.36;104475;1313;109115;-70
2021/12/20 12:02:08;;;;;;;4.90;1.50;;;;;;;1.06;66.41;99860.49;104209;1312;107685;-69
2021/12/20 12:04:57;;;;;;;5.10;1.50;;;;;;;0.92;66.10;99863.91;104255;1315;137659;-70
2021/12/20 12:07:31;;;;;;;1.70;1.10;;;;;;;0.74;66.10;99858.94;104613;1315;95896;-70
2021/12/20 12:10:08;;;;;;;2.50;1.40;;;;;;;0.58;66.57;99868.84;103237;1316;137507;-69